sensor_id;sensor_type;location;lat;lon;timestamp;pressure;altitude;pressure_sealevel;temperature;humidity
72465;BME280;60471;52.150;4.508;2023-05-25T00:00:25;102400.75;;;13.43;72.38
72465;BME280;60471;52.150;4.508;2023-05-25T00:02:52;102406.16;;;13.40;72.45
72465;BME280;60471;52.150;4.508;2023-05-25T00:05:19;102394.69;;;13.40;72.38
72465;BME280;60471;52.150;4.508;2023-05-25T00:07:46;102405.56;;;13.32;72.94
72465;BME280;60471;52.150;4.508;2023-05-25T00:10:12;102411.47;;;13.40;72.51
72465;BME280;60471;52.150;4.508;2023-05-25T00:12:38;102405.47;;;13.35;73.10
72465;BME280;60471;52.150;4.508;2023-05-25T00:15:05;102408.94;;;13.37;73.01
72465;BME280;60471;52.150;4.508;2023-05-25T00:17:32;102408.53;;;13.23;73.15
72465;BME280;60471;52.150;4.508;2023-05-25T00:19:58;102403.72;;;13.34;73.22
72465;BME280;60471;52.150;4.508;2023-05-25T00:22:36;102409.31;;;13.26;73.52
72465;BME280;60471;52.150;4.508;2023-05-25T00:25:03;102407.41;;;13.30;73.16
72465;BME280;60471;52.150;4.508;2023-05-25T00:27:31;102399.66;;;13.24;73.44
72465;BME280;60471;52.150;4.508;2023-05-25T00:29:57;102411.28;;;13.20;73.60
72465;BME280;60471;52.150;4.508;2023-05-25T00:32:23;102409.50;;;13.20;73.88
72465;BME280;60471;52.150;4.508;2023-05-25T00:34:50;102407.72;;;13.21;73.65
72465;BME280;60471;52.150;4.508;2023-05-25T00:37:16;102408.44;;;13.26;73.51
72465;BME280;60471;52.150;4.508;2023-05-25T00:39:42;102416.59;;;13.20;73.39
72465;BME280;60471;52.150;4.508;2023-05-25T00:42:09;102404.38;;;13.14;73.49
72465;BME280;60471;52.150;4.508;2023-05-25T00:44:36;102411.47;;;13.14;73.57
72465;BME280;60471;52.150;4.508;2023-05-25T00:47:02;102413.63;;;13.01;74.01
72465;BME280;60471;52.150;4.508;2023-05-25T00:49:30;102410.97;;;13.02;74.21
72465;BME280;60471;52.150;4.508;2023-05-25T00:52:00;102414.31;;;13.07;74.55
72465;BME280;60471;52.150;4.508;2023-05-25T00:54:27;102421.59;;;13.01;74.28
72465;BME280;60471;52.150;4.508;2023-05-25T00:57:00;102420.78;;;12.99;74.29
72465;BME280;60471;52.150;4.508;2023-05-25T00:59:35;102420.84;;;12.97;74.61
72465;BME280;60471;52.150;4.508;2023-05-25T01:02:10;102419.00;;;12.99;74.48
72465;BME280;60471;52.150;4.508;2023-05-25T01:04:42;102428.25;;;12.86;74.75
72465;BME280;60471;52.150;4.508;2023-05-25T01:07:16;102423.25;;;12.77;75.45
72465;BME280;60471;52.150;4.508;2023-05-25T01:09:47;102425.94;;;12.75;75.60
72465;BME280;60471;52.150;4.508;2023-05-25T01:12:20;102429.19;;;12.85;75.29
72465;BME280;60471;52.150;4.508;2023-05-25T01:14:48;102427.63;;;12.78;75.73
72465;BME280;60471;52.150;4.508;2023-05-25T01:17:15;102437.25;;;12.81;75.71
72465;BME280;60471;52.150;4.508;2023-05-25T01:19:42;102430.19;;;12.81;75.95
72465;BME280;60471;52.150;4.508;2023-05-25T01:25:08;102442.47;;;12.84;76.11
72465;BME280;60471;52.150;4.508;2023-05-25T01:27:43;102438.28;;;12.76;75.86
72465;BME280;60471;52.150;4.508;2023-05-25T01:30:16;102435.63;;;12.76;75.79
72465;BME280;60471;52.150;4.508;2023-05-25T01:32:44;102427.63;;;12.78;75.48
72465;BME280;60471;52.150;4.508;2023-05-25T01:35:12;102435.78;;;12.72;75.72
72465;BME280;60471;52.150;4.508;2023-05-25T01:37:47;102434.00;;;12.72;75.72
72465;BME280;60471;52.150;4.508;2023-05-25T01:40:14;102429.47;;;12.76;75.82
72465;BME280;60471;52.150;4.508;2023-05-25T01:42:41;102435.97;;;12.66;75.85
72465;BME280;60471;52.150;4.508;2023-05-25T01:45:08;102438.81;;;12.60;76.08
72465;BME280;60471;52.150;4.508;2023-05-25T01:48:01;102440.81;;;12.52;77.04
72465;BME280;60471;52.150;4.508;2023-05-25T01:50:42;102441.00;;;12.45;77.07
72465;BME280;60471;52.150;4.508;2023-05-25T01:53:44;102452.38;;;12.49;77.44
72465;BME280;60471;52.150;4.508;2023-05-25T01:56:14;102448.94;;;12.45;77.52
72465;BME280;60471;52.150;4.508;2023-05-25T01:58:43;102453.03;;;12.56;77.13
72465;BME280;60471;52.150;4.508;2023-05-25T02:01:13;102450.41;;;12.56;77.20
72465;BME280;60471;52.150;4.508;2023-05-25T02:03:43;102447.84;;;12.53;77.44
72465;BME280;60471;52.150;4.508;2023-05-25T02:06:14;102459.53;;;12.45;77.43
72465;BME280;60471;52.150;4.508;2023-05-25T02:08:41;102457.69;;;12.47;77.71
72465;BME280;60471;52.150;4.508;2023-05-25T02:11:09;102457.84;;;12.43;77.89
72465;BME280;60471;52.150;4.508;2023-05-25T02:13:37;102452.44;;;12.46;78.58
72465;BME280;60471;52.150;4.508;2023-05-25T02:16:03;102455.59;;;12.59;78.37
72465;BME280;60471;52.150;4.508;2023-05-25T02:18:29;102457.69;;;12.77;77.66
72465;BME280;60471;52.150;4.508;2023-05-25T02:20:56;102456.81;;;12.76;76.65
72465;BME280;60471;52.150;4.508;2023-05-25T02:23:22;102455.25;;;12.71;76.50
72465;BME280;60471;52.150;4.508;2023-05-25T02:25:48;102461.19;;;12.77;76.83
72465;BME280;60471;52.150;4.508;2023-05-25T02:28:16;102456.38;;;12.90;76.01
72465;BME280;60471;52.150;4.508;2023-05-25T02:30:42;102466.44;;;12.79;76.01
72465;BME280;60471;52.150;4.508;2023-05-25T02:33:08;102468.06;;;12.85;75.79
72465;BME280;60471;52.150;4.508;2023-05-25T02:35:35;102466.38;;;12.81;76.06
72465;BME280;60471;52.150;4.508;2023-05-25T02:38:01;102468.09;;;12.83;75.81
72465;BME280;60471;52.150;4.508;2023-05-25T02:40:27;102467.81;;;12.92;75.46
72465;BME280;60471;52.150;4.508;2023-05-25T02:42:53;102469.25;;;12.74;75.59
72465;BME280;60471;52.150;4.508;2023-05-25T02:45:20;102460.22;;;12.82;75.71
72465;BME280;60471;52.150;4.508;2023-05-25T02:47:46;102464.31;;;12.90;75.23
72465;BME280;60471;52.150;4.508;2023-05-25T02:50:12;102465.25;;;12.89;75.54
72465;BME280;60471;52.150;4.508;2023-05-25T02:52:38;102473.44;;;12.82;76.06
72465;BME280;60471;52.150;4.508;2023-05-25T02:55:05;102477.56;;;12.92;75.77
72465;BME280;60471;52.150;4.508;2023-05-25T02:57:32;102473.06;;;12.94;75.51
72465;BME280;60471;52.150;4.508;2023-05-25T02:59:58;102477.44;;;12.95;75.46
72465;BME280;60471;52.150;4.508;2023-05-25T03:02:24;102474.91;;;12.90;75.77
72465;BME280;60471;52.150;4.508;2023-05-25T03:04:50;102480.31;;;12.87;75.27
72465;BME280;60471;52.150;4.508;2023-05-25T03:07:19;102477.03;;;12.79;75.89
72465;BME280;60471;52.150;4.508;2023-05-25T03:09:50;102469.16;;;12.77;76.33
72465;BME280;60471;52.150;4.508;2023-05-25T03:12:16;102475.94;;;12.86;75.48
72465;BME280;60471;52.150;4.508;2023-05-25T03:14:42;102469.97;;;12.80;75.62
72465;BME280;60471;52.150;4.508;2023-05-25T03:17:09;102472.06;;;12.70;76.14
72465;BME280;60471;52.150;4.508;2023-05-25T03:19:35;102478.28;;;12.67;76.36
72465;BME280;60471;52.150;4.508;2023-05-25T03:22:04;102471.16;;;12.69;76.06
72465;BME280;60471;52.150;4.508;2023-05-25T03:24:30;102472.22;;;12.64;76.25
72465;BME280;60471;52.150;4.508;2023-05-25T03:26:57;102471.72;;;12.51;76.35
72465;BME280;60471;52.150;4.508;2023-05-25T03:29:23;102479.03;;;12.43;76.88
72465;BME280;60471;52.150;4.508;2023-05-25T03:31:49;102487.38;;;12.29;77.63
72465;BME280;60471;52.150;4.508;2023-05-25T03:34:15;102482.84;;;12.33;78.20
72465;BME280;60471;52.150;4.508;2023-05-25T03:36:42;102486.81;;;12.49;77.81
72465;BME280;60471;52.150;4.508;2023-05-25T03:39:10;102484.41;;;12.40;77.56
72465;BME280;60471;52.150;4.508;2023-05-25T03:41:36;102477.25;;;12.43;77.63
72465;BME280;60471;52.150;4.508;2023-05-25T03:44:03;102479.06;;;12.41;77.48
72465;BME280;60471;52.150;4.508;2023-05-25T03:46:29;102490.63;;;12.39;77.72
72465;BME280;60471;52.150;4.508;2023-05-25T03:48:55;102484.16;;;12.47;77.72
72465;BME280;60471;52.150;4.508;2023-05-25T03:51:21;102489.41;;;12.51;77.41
72465;BME280;60471;52.150;4.508;2023-05-25T03:53:48;102495.63;;;12.48;77.29
72465;BME280;60471;52.150;4.508;2023-05-25T03:56:14;102492.81;;;12.54;77.46
72465;BME280;60471;52.150;4.508;2023-05-25T03:58:40;102490.66;;;12.67;76.77
72465;BME280;60471;52.150;4.508;2023-05-25T04:01:07;102497.06;;;12.60;76.99
72465;BME280;60471;52.150;4.508;2023-05-25T04:03:35;102496.81;;;12.67;77.17
72465;BME280;60471;52.150;4.508;2023-05-25T04:06:01;102492.94;;;12.79;76.36
72465;BME280;60471;52.150;4.508;2023-05-25T04:08:27;102493.81;;;12.80;76.26
72465;BME280;60471;52.150;4.508;2023-05-25T04:10:54;102494.81;;;12.75;76.62
72465;BME280;60471;52.150;4.508;2023-05-25T04:13:21;102498.97;;;12.84;76.38
72465;BME280;60471;52.150;4.508;2023-05-25T04:15:49;102502.44;;;12.86;76.29
72465;BME280;60471;52.150;4.508;2023-05-25T04:18:16;102508.97;;;12.74;76.29
72465;BME280;60471;52.150;4.508;2023-05-25T04:20:42;102508.16;;;12.72;76.90
72465;BME280;60471;52.150;4.508;2023-05-25T04:23:08;102503.63;;;12.76;76.47
72465;BME280;60471;52.150;4.508;2023-05-25T04:25:34;102509.94;;;12.72;76.61
72465;BME280;60471;52.150;4.508;2023-05-25T04:28:02;102514.66;;;12.90;76.63
72465;BME280;60471;52.150;4.508;2023-05-25T04:30:28;102511.66;;;13.02;75.88
72465;BME280;60471;52.150;4.508;2023-05-25T04:32:56;102506.16;;;13.09;75.90
72465;BME280;60471;52.150;4.508;2023-05-25T04:35:22;102503.03;;;13.24;75.00
72465;BME280;60471;52.150;4.508;2023-05-25T04:37:48;102512.13;;;13.15;75.51
72465;BME280;60471;52.150;4.508;2023-05-25T04:40:14;102515.47;;;13.22;75.77
72465;BME280;60471;52.150;4.508;2023-05-25T04:42:41;102520.81;;;13.20;75.38
72465;BME280;60471;52.150;4.508;2023-05-25T04:45:07;102521.00;;;13.14;75.86
72465;BME280;60471;52.150;4.508;2023-05-25T04:47:35;102529.03;;;13.11;75.94
72465;BME280;60471;52.150;4.508;2023-05-25T04:50:02;102527.47;;;13.33;75.91
72465;BME280;60471;52.150;4.508;2023-05-25T04:52:29;102527.50;;;13.32;75.79
72465;BME280;60471;52.150;4.508;2023-05-25T04:54:55;102527.44;;;13.35;74.86
72465;BME280;60471;52.150;4.508;2023-05-25T04:57:21;102526.66;;;13.31;74.93
72465;BME280;60471;52.150;4.508;2023-05-25T04:59:47;102528.81;;;13.47;75.33
72465;BME280;60471;52.150;4.508;2023-05-25T05:02:14;102533.84;;;13.54;74.87
72465;BME280;60471;52.150;4.508;2023-05-25T05:04:40;102542.44;;;13.62;74.38
72465;BME280;60471;52.150;4.508;2023-05-25T05:07:07;102539.72;;;13.64;74.48
72465;BME280;60471;52.150;4.508;2023-05-25T05:09:33;102539.78;;;13.62;74.24
72465;BME280;60471;52.150;4.508;2023-05-25T05:12:00;102540.59;;;13.64;74.33
72465;BME280;60471;52.150;4.508;2023-05-25T05:14:28;102543.56;;;13.82;74.20
72465;BME280;60471;52.150;4.508;2023-05-25T05:16:54;102543.81;;;13.74;73.99
72465;BME280;60471;52.150;4.508;2023-05-25T05:19:20;102542.38;;;13.64;73.98
72465;BME280;60471;52.150;4.508;2023-05-25T05:21:47;102534.81;;;13.78;73.72
72465;BME280;60471;52.150;4.508;2023-05-25T05:24:14;102543.66;;;13.79;73.97
72465;BME280;60471;52.150;4.508;2023-05-25T05:26:40;102535.22;;;13.92;73.53
72465;BME280;60471;52.150;4.508;2023-05-25T05:29:07;102548.44;;;13.94;73.31
72465;BME280;60471;52.150;4.508;2023-05-25T05:31:33;102541.06;;;14.02;73.21
72465;BME280;60471;52.150;4.508;2023-05-25T05:34:01;102549.63;;;14.10;73.32
72465;BME280;60471;52.150;4.508;2023-05-25T05:36:27;102549.41;;;14.16;73.20
72465;BME280;60471;52.150;4.508;2023-05-25T05:38:54;102552.00;;;14.18;72.92
72465;BME280;60471;52.150;4.508;2023-05-25T05:41:21;102556.34;;;14.20;72.84
72465;BME280;60471;52.150;4.508;2023-05-25T05:43:48;102565.03;;;14.26;72.73
72465;BME280;60471;52.150;4.508;2023-05-25T05:46:14;102567.28;;;14.36;72.63
72465;BME280;60471;52.150;4.508;2023-05-25T05:48:41;102563.09;;;14.54;72.06
72465;BME280;60471;52.150;4.508;2023-05-25T05:51:07;102567.47;;;14.57;71.85
72465;BME280;60471;52.150;4.508;2023-05-25T05:53:33;102574.63;;;14.55;71.41
72465;BME280;60471;52.150;4.508;2023-05-25T05:56:01;102582.22;;;14.65;70.99
72465;BME280;60471;52.150;4.508;2023-05-25T05:58:29;102579.38;;;14.70;70.43
72465;BME280;60471;52.150;4.508;2023-05-25T06:00:57;102581.16;;;14.93;70.36
72465;BME280;60471;52.150;4.508;2023-05-25T06:03:25;102578.44;;;14.94;70.49
72465;BME280;60471;52.150;4.508;2023-05-25T06:05:54;102582.69;;;15.22;69.44
72465;BME280;60471;52.150;4.508;2023-05-25T06:08:20;102581.91;;;15.42;68.55
72465;BME280;60471;52.150;4.508;2023-05-25T06:10:46;102581.41;;;15.54;68.33
72465;BME280;60471;52.150;4.508;2023-05-25T06:13:13;102581.19;;;15.58;67.50
72465;BME280;60471;52.150;4.508;2023-05-25T06:15:39;102594.13;;;15.46;67.14
72465;BME280;60471;52.150;4.508;2023-05-25T06:18:05;102592.78;;;15.57;66.74
72465;BME280;60471;52.150;4.508;2023-05-25T06:20:32;102587.34;;;15.60;66.55
72465;BME280;60471;52.150;4.508;2023-05-25T06:22:59;102591.38;;;15.71;66.48
72465;BME280;60471;52.150;4.508;2023-05-25T06:25:26;102587.59;;;15.76;66.50
72465;BME280;60471;52.150;4.508;2023-05-25T06:27:52;102591.72;;;15.83;65.51
72465;BME280;60471;52.150;4.508;2023-05-25T06:30:18;102595.66;;;15.75;65.88
72465;BME280;60471;52.150;4.508;2023-05-25T06:32:45;102593.22;;;15.69;65.99
72465;BME280;60471;52.150;4.508;2023-05-25T06:35:11;102595.53;;;15.78;65.74
72465;BME280;60471;52.150;4.508;2023-05-25T06:37:48;102592.81;;;16.00;64.97
72465;BME280;60471;52.150;4.508;2023-05-25T06:40:15;102592.91;;;15.76;65.56
72465;BME280;60471;52.150;4.508;2023-05-25T06:42:42;102594.94;;;15.91;65.12
72465;BME280;60471;52.150;4.508;2023-05-25T06:45:09;102597.16;;;16.22;64.21
72465;BME280;60471;52.150;4.508;2023-05-25T06:47:36;102598.88;;;16.03;64.57
72465;BME280;60471;52.150;4.508;2023-05-25T06:50:02;102603.72;;;16.14;64.12
72465;BME280;60471;52.150;4.508;2023-05-25T06:52:29;102606.06;;;16.42;63.08
72465;BME280;60471;52.150;4.508;2023-05-25T06:54:56;102600.06;;;16.77;61.98
72465;BME280;60471;52.150;4.508;2023-05-25T06:57:23;102607.06;;;17.18;60.89
72465;BME280;60471;52.150;4.508;2023-05-25T06:59:49;102603.47;;;17.74;59.13
72465;BME280;60471;52.150;4.508;2023-05-25T07:02:16;102605.44;;;17.70;58.98
72465;BME280;60471;52.150;4.508;2023-05-25T07:04:43;102614.69;;;17.44;58.93
72465;BME280;60471;52.150;4.508;2023-05-25T07:07:09;102618.78;;;17.51;59.03
72465;BME280;60471;52.150;4.508;2023-05-25T07:09:37;102623.09;;;17.54;57.45
72465;BME280;60471;52.150;4.508;2023-05-25T07:12:05;102620.97;;;17.43;57.45
72465;BME280;60471;52.150;4.508;2023-05-25T07:14:33;102626.00;;;17.12;59.10
72465;BME280;60471;52.150;4.508;2023-05-25T07:16:59;102624.72;;;17.01;59.21
72465;BME280;60471;52.150;4.508;2023-05-25T07:19:26;102625.88;;;17.33;57.85
72465;BME280;60471;52.150;4.508;2023-05-25T07:21:52;102631.03;;;17.36;57.45
72465;BME280;60471;52.150;4.508;2023-05-25T07:24:18;102624.94;;;17.34;57.90
72465;BME280;60471;52.150;4.508;2023-05-25T07:26:44;102626.13;;;17.46;58.18
72465;BME280;60471;52.150;4.508;2023-05-25T07:29:12;102632.28;;;17.48;57.21
72465;BME280;60471;52.150;4.508;2023-05-25T07:31:39;102636.53;;;17.33;58.38
72465;BME280;60471;52.150;4.508;2023-05-25T07:34:05;102647.94;;;17.18;58.79
72465;BME280;60471;52.150;4.508;2023-05-25T07:36:31;102648.16;;;17.32;58.44
72465;BME280;60471;52.150;4.508;2023-05-25T07:38:57;102638.63;;;17.46;57.14
72465;BME280;60471;52.150;4.508;2023-05-25T07:41:24;102642.56;;;17.56;58.52
72465;BME280;60471;52.150;4.508;2023-05-25T07:43:51;102645.09;;;17.78;57.67
72465;BME280;60471;52.150;4.508;2023-05-25T07:46:17;102642.50;;;17.76;58.05
72465;BME280;60471;52.150;4.508;2023-05-25T07:48:46;102641.91;;;17.88;57.63
72465;BME280;60471;52.150;4.508;2023-05-25T07:51:13;102648.63;;;18.14;56.30
72465;BME280;60471;52.150;4.508;2023-05-25T07:53:39;102650.88;;;18.05;56.39
72465;BME280;60471;52.150;4.508;2023-05-25T07:56:07;102652.06;;;18.16;56.13
72465;BME280;60471;52.150;4.508;2023-05-25T07:58:33;102649.75;;;18.61;54.53
72465;BME280;60471;52.150;4.508;2023-05-25T08:00:59;102658.34;;;18.33;54.32
72465;BME280;60471;52.150;4.508;2023-05-25T08:03:26;102657.16;;;18.21;54.24
72465;BME280;60471;52.150;4.508;2023-05-25T08:05:52;102665.03;;;18.41;53.43
72465;BME280;60471;52.150;4.508;2023-05-25T08:08:18;102660.31;;;18.46;53.71
72465;BME280;60471;52.150;4.508;2023-05-25T08:10:45;102663.69;;;18.33;53.43
72465;BME280;60471;52.150;4.508;2023-05-25T08:13:11;102662.22;;;18.27;53.56
72465;BME280;60471;52.150;4.508;2023-05-25T08:15:37;102666.34;;;18.33;54.62
72465;BME280;60471;52.150;4.508;2023-05-25T08:18:03;102672.81;;;18.29;53.79
72465;BME280;60471;52.150;4.508;2023-05-25T08:20:29;102674.84;;;18.06;54.26
72465;BME280;60471;52.150;4.508;2023-05-25T08:22:56;102673.44;;;18.16;53.38
72465;BME280;60471;52.150;4.508;2023-05-25T08:25:23;102671.16;;;18.61;53.54
72465;BME280;60471;52.150;4.508;2023-05-25T08:27:50;102675.66;;;17.89;54.79
72465;BME280;60471;52.150;4.508;2023-05-25T08:30:16;102674.34;;;17.98;53.81
72465;BME280;60471;52.150;4.508;2023-05-25T08:32:42;102679.97;;;17.75;54.04
72465;BME280;60471;52.150;4.508;2023-05-25T08:35:08;102672.78;;;17.94;53.71
72465;BME280;60471;52.150;4.508;2023-05-25T08:37:35;102680.44;;;18.19;53.95
72465;BME280;60471;52.150;4.508;2023-05-25T08:40:01;102687.50;;;18.20;53.26
72465;BME280;60471;52.150;4.508;2023-05-25T08:42:28;102692.97;;;18.00;53.70
72465;BME280;60471;52.150;4.508;2023-05-25T08:44:55;102697.69;;;17.57;55.38
72465;BME280;60471;52.150;4.508;2023-05-25T08:47:21;102696.53;;;17.06;55.76
72465;BME280;60471;52.150;4.508;2023-05-25T08:49:48;102695.13;;;16.97;56.91
72465;BME280;60471;52.150;4.508;2023-05-25T08:52:20;102699.06;;;16.89;57.50
72465;BME280;60471;52.150;4.508;2023-05-25T08:54:50;102698.38;;;16.85;57.92
72465;BME280;60471;52.150;4.508;2023-05-25T08:57:24;102700.66;;;16.93;57.96
72465;BME280;60471;52.150;4.508;2023-05-25T09:00:10;102704.47;;;16.87;57.68
72465;BME280;60471;52.150;4.508;2023-05-25T09:05:16;102697.59;;;17.02;56.93
72465;BME280;60471;52.150;4.508;2023-05-25T09:07:43;102706.91;;;17.12;57.11
72465;BME280;60471;52.150;4.508;2023-05-25T09:10:11;102692.84;;;17.08;57.36
72465;BME280;60471;52.150;4.508;2023-05-25T09:12:40;102692.72;;;17.30;56.47
72465;BME280;60471;52.150;4.508;2023-05-25T09:15:11;102694.31;;;17.34;57.02
72465;BME280;60471;52.150;4.508;2023-05-25T09:17:38;102702.28;;;17.74;54.91
72465;BME280;60471;52.150;4.508;2023-05-25T09:20:09;102695.50;;;18.03;54.45
72465;BME280;60471;52.150;4.508;2023-05-25T09:22:35;102700.06;;;18.87;52.48
72465;BME280;60471;52.150;4.508;2023-05-25T09:25:05;102693.00;;;19.19;50.97
72465;BME280;60471;52.150;4.508;2023-05-25T09:27:35;102692.66;;;19.41;50.45
72465;BME280;60471;52.150;4.508;2023-05-25T09:30:04;102681.88;;;19.27;49.45
72465;BME280;60471;52.150;4.508;2023-05-25T09:32:31;102689.47;;;18.86;51.20
72465;BME280;60471;52.150;4.508;2023-05-25T09:35:11;102689.94;;;18.76;51.35
72465;BME280;60471;52.150;4.508;2023-05-25T09:37:40;102692.47;;;18.79;51.65
72465;BME280;60471;52.150;4.508;2023-05-25T09:40:08;102695.28;;;18.94;51.96
72465;BME280;60471;52.150;4.508;2023-05-25T09:42:38;102690.50;;;18.83;50.77
72465;BME280;60471;52.150;4.508;2023-05-25T09:45:04;102691.44;;;18.30;50.59
72465;BME280;60471;52.150;4.508;2023-05-25T09:47:31;102698.81;;;18.08;51.52
72465;BME280;60471;52.150;4.508;2023-05-25T09:49:58;102701.09;;;18.33;50.33
72465;BME280;60471;52.150;4.508;2023-05-25T09:52:25;102702.28;;;18.27;51.20
72465;BME280;60471;52.150;4.508;2023-05-25T09:54:52;102701.41;;;18.44;50.66
72465;BME280;60471;52.150;4.508;2023-05-25T09:57:19;102702.22;;;18.29;51.39
72465;BME280;60471;52.150;4.508;2023-05-25T09:59:46;102703.78;;;18.15;52.04
72465;BME280;60471;52.150;4.508;2023-05-25T10:02:13;102703.69;;;18.34;51.31
72465;BME280;60471;52.150;4.508;2023-05-25T10:04:40;102708.19;;;18.16;52.60
72465;BME280;60471;52.150;4.508;2023-05-25T10:07:07;102719.59;;;17.84;53.15
72465;BME280;60471;52.150;4.508;2023-05-25T10:09:38;102721.72;;;17.57;54.43
72465;BME280;60471;52.150;4.508;2023-05-25T10:12:09;102717.69;;;17.48;56.31
72465;BME280;60471;52.150;4.508;2023-05-25T10:14:37;102721.13;;;17.71;56.78
72465;BME280;60471;52.150;4.508;2023-05-25T10:17:05;102722.09;;;17.49;57.06
72465;BME280;60471;52.150;4.508;2023-05-25T10:19:37;102713.53;;;17.80;55.58
72465;BME280;60471;52.150;4.508;2023-05-25T10:22:14;102713.72;;;17.94;55.58
72465;BME280;60471;52.150;4.508;2023-05-25T10:24:58;102708.59;;;17.90;55.26
72465;BME280;60471;52.150;4.508;2023-05-25T10:27:42;102706.41;;;17.98;54.78
72465;BME280;60471;52.150;4.508;2023-05-25T10:30:13;102715.72;;;17.89;55.05
72465;BME280;60471;52.150;4.508;2023-05-25T10:32:41;102710.22;;;18.29;54.26
72465;BME280;60471;52.150;4.508;2023-05-25T10:35:13;102705.13;;;18.76;53.54
72465;BME280;60471;52.150;4.508;2023-05-25T10:37:39;102716.78;;;19.08;52.15
72465;BME280;60471;52.150;4.508;2023-05-25T10:40:07;102713.72;;;19.16;52.64
72465;BME280;60471;52.150;4.508;2023-05-25T10:42:36;102714.13;;;19.08;52.06
72465;BME280;60471;52.150;4.508;2023-05-25T10:45:07;102711.81;;;19.18;51.29
72465;BME280;60471;52.150;4.508;2023-05-25T10:47:39;102712.31;;;19.08;51.19
72465;BME280;60471;52.150;4.508;2023-05-25T10:50:18;102714.78;;;18.96;50.87
72465;BME280;60471;52.150;4.508;2023-05-25T10:53:04;102714.97;;;18.75;51.82
72465;BME280;60471;52.150;4.508;2023-05-25T10:58:17;102726.53;;;18.76;52.16
72465;BME280;60471;52.150;4.508;2023-05-25T11:06:12;102728.06;;;17.54;55.09
72465;BME280;60471;52.150;4.508;2023-05-25T11:08:57;102730.09;;;17.49;55.89
72465;BME280;60471;52.150;4.508;2023-05-25T11:22:15;102724.47;;;17.55;55.80
72465;BME280;60471;52.150;4.508;2023-05-25T11:24:45;102725.22;;;17.59;55.59
72465;BME280;60471;52.150;4.508;2023-05-25T11:27:21;102725.22;;;17.59;55.68
72465;BME280;60471;52.150;4.508;2023-05-25T11:29:49;102725.91;;;17.62;55.27
72465;BME280;60471;52.150;4.508;2023-05-25T11:32:16;102722.19;;;17.48;54.96
72465;BME280;60471;52.150;4.508;2023-05-25T11:34:43;102711.56;;;17.27;54.55
72465;BME280;60471;52.150;4.508;2023-05-25T11:37:15;102713.41;;;17.44;53.25
72465;BME280;60471;52.150;4.508;2023-05-25T11:39:52;102708.16;;;17.43;53.18
72465;BME280;60471;52.150;4.508;2023-05-25T11:42:23;102703.19;;;17.54;53.24
72465;BME280;60471;52.150;4.508;2023-05-25T11:44:49;102707.22;;;17.44;53.52
72465;BME280;60471;52.150;4.508;2023-05-25T11:47:19;102705.56;;;17.79;52.44
72465;BME280;60471;52.150;4.508;2023-05-25T11:49:48;102702.31;;;17.91;51.84
72465;BME280;60471;52.150;4.508;2023-05-25T11:52:16;102707.34;;;17.97;51.50
72465;BME280;60471;52.150;4.508;2023-05-25T11:54:44;102701.03;;;17.81;51.84
72465;BME280;60471;52.150;4.508;2023-05-25T11:57:17;102702.38;;;17.89;51.73
72465;BME280;60471;52.150;4.508;2023-05-25T11:59:56;102703.66;;;18.00;51.76
72465;BME280;60471;52.150;4.508;2023-05-25T12:02:25;102695.91;;;18.12;50.60
72465;BME280;60471;52.150;4.508;2023-05-25T12:04:58;102700.66;;;18.24;50.05
72465;BME280;60471;52.150;4.508;2023-05-25T12:07:29;102696.53;;;18.17;50.22
72465;BME280;60471;52.150;4.508;2023-05-25T12:10:04;102701.84;;;18.00;50.51
72465;BME280;60471;52.150;4.508;2023-05-25T12:12:42;102700.78;;;18.04;50.20
72465;BME280;60471;52.150;4.508;2023-05-25T12:15:12;102701.47;;;18.08;49.85
72465;BME280;60471;52.150;4.508;2023-05-25T12:17:42;102706.84;;;18.60;49.19
72465;BME280;60471;52.150;4.508;2023-05-25T12:20:11;102712.75;;;18.83;48.36
72465;BME280;60471;52.150;4.508;2023-05-25T12:22:40;102704.63;;;19.02;47.76
72465;BME280;60471;52.150;4.508;2023-05-25T12:25:09;102701.03;;;18.86;47.58
72465;BME280;60471;52.150;4.508;2023-05-25T12:27:37;102697.91;;;19.11;47.32
72465;BME280;60471;52.150;4.508;2023-05-25T12:30:06;102696.13;;;18.94;47.87
72465;BME280;60471;52.150;4.508;2023-05-25T12:32:59;102694.47;;;19.58;46.47
72465;BME280;60471;52.150;4.508;2023-05-25T12:35:42;102689.84;;;20.67;43.17
72465;BME280;60471;52.150;4.508;2023-05-25T12:38:15;102689.09;;;19.89;44.94
72465;BME280;60471;52.150;4.508;2023-05-25T12:40:43;102685.97;;;19.81;45.75
72465;BME280;60471;52.150;4.508;2023-05-25T12:43:10;102683.97;;;19.37;46.69
72465;BME280;60471;52.150;4.508;2023-05-25T12:45:41;102695.72;;;19.35;46.42
72465;BME280;60471;52.150;4.508;2023-05-25T12:48:08;102688.44;;;19.37;46.49
72465;BME280;60471;52.150;4.508;2023-05-25T12:50:35;102697.97;;;18.76;48.93
72465;BME280;60471;52.150;4.508;2023-05-25T12:53:02;102689.44;;;19.19;47.63
72465;BME280;60471;52.150;4.508;2023-05-25T12:55:30;102692.31;;;18.82;49.03
72465;BME280;60471;52.150;4.508;2023-05-25T12:58:02;102681.53;;;18.67;49.37
72465;BME280;60471;52.150;4.508;2023-05-25T13:03:00;102686.69;;;19.20;48.87
72465;BME280;60471;52.150;4.508;2023-05-25T13:05:32;102682.06;;;21.05;44.85
72465;BME280;60471;52.150;4.508;2023-05-25T13:08:00;102672.13;;;23.57;39.59
72465;BME280;60471;52.150;4.508;2023-05-25T13:10:28;102671.03;;;24.07;37.73
72465;BME280;60471;52.150;4.508;2023-05-25T13:12:55;102665.19;;;23.29;38.55
72465;BME280;60471;52.150;4.508;2023-05-25T13:15:23;102663.22;;;21.89;40.00
72465;BME280;60471;52.150;4.508;2023-05-25T13:17:52;102668.22;;;20.10;44.19
72465;BME280;60471;52.150;4.508;2023-05-25T13:20:21;102659.38;;;19.78;44.49
72465;BME280;60471;52.150;4.508;2023-05-25T13:22:49;102668.16;;;19.49;44.98